createdAt,value
2022-09-03T00:01:59.024Z,2.00
2022-09-03T00:04:11.241Z,2.20
2022-09-03T00:06:21.763Z,2.00
2022-09-03T00:08:28.493Z,2.23
2022-09-03T00:10:59.965Z,1.87
2022-09-03T00:13:04.914Z,2.10
2022-09-03T00:15:11.134Z,2.60
2022-09-03T00:17:18.871Z,1.90
2022-09-03T00:19:31.969Z,2.13
2022-09-03T00:21:45.074Z,1.77
2022-09-03T00:23:48.405Z,1.60
2022-09-03T00:26:20.980Z,2.00
2022-09-03T00:28:30.232Z,1.97
2022-09-03T00:30:32.560Z,1.87
2022-09-03T00:32:40.668Z,2.20
2022-09-03T00:34:47.089Z,2.20
2022-09-03T00:36:50.123Z,2.30
2022-09-03T00:38:52.986Z,2.73
2022-09-03T00:40:59.887Z,1.87
2022-09-03T00:43:14.147Z,2.10
2022-09-03T00:45:25.642Z,2.20
2022-09-03T00:47:35.669Z,2.20
2022-09-03T00:49:51.108Z,1.90
2022-09-03T00:51:56.454Z,2.30
2022-09-03T00:54:00.967Z,1.83
2022-09-03T00:56:06.114Z,1.97
2022-09-03T00:58:34.827Z,2.20
2022-09-03T01:00:37.458Z,2.30
2022-09-03T01:03:08.159Z,2.33
2022-09-03T01:05:34.552Z,1.90
2022-09-03T01:08:05.084Z,2.20
2022-09-03T01:10:10.299Z,1.97
2022-09-03T01:12:15.798Z,2.47
2022-09-03T01:14:30.235Z,1.73
2022-09-03T01:16:40.771Z,2.10
2022-09-03T01:19:25.742Z,2.30
2022-09-03T01:21:46.758Z,2.17
2022-09-03T01:24:09.906Z,2.47
2022-09-03T01:26:46.053Z,2.43
2022-09-03T01:29:17.660Z,2.43
2022-09-03T01:31:50.348Z,1.83
2022-09-03T01:34:11.523Z,2.20
2022-09-03T01:36:34.661Z,2.13
2022-09-03T01:38:42.544Z,2.30
2022-09-03T01:41:42.535Z,2.17
2022-09-03T01:43:51.855Z,2.40
2022-09-03T01:46:00.516Z,1.90
2022-09-03T01:48:12.975Z,2.27
2022-09-03T01:50:43.351Z,2.07
2022-09-03T01:53:04.911Z,2.20
2022-09-03T01:55:23.952Z,2.43
2022-09-03T01:57:48.252Z,2.50
2022-09-03T02:00:04.724Z,2.13
2022-09-03T02:02:26.687Z,2.43
2022-09-03T02:04:29.133Z,2.23
2022-09-03T02:06:34.355Z,2.33
2022-09-03T02:08:36.595Z,2.40
2022-09-03T02:10:43.523Z,1.90
2022-09-03T02:12:52.678Z,2.60
2022-09-03T02:14:55.651Z,2.20
2022-09-03T02:16:58.782Z,2.50
2022-09-03T02:19:09.008Z,2.70
2022-09-03T02:21:11.396Z,2.47
2022-09-03T02:23:14.307Z,2.23
2022-09-03T02:25:17.542Z,2.27
2022-09-03T02:27:19.852Z,2.77
2022-09-03T02:29:22.108Z,2.80
2022-09-03T02:31:24.313Z,2.60
2022-09-03T02:33:27.710Z,2.90
2022-09-03T02:35:29.867Z,2.50
2022-09-03T02:37:32.123Z,2.43
2022-09-03T02:39:38.733Z,2.30
2022-09-03T02:41:41.574Z,2.30
2022-09-03T02:44:09.982Z,2.47
2022-09-03T02:46:18.733Z,2.30
2022-09-03T02:48:23.938Z,2.60
2022-09-03T02:50:27.031Z,3.00
2022-09-03T02:52:29.148Z,2.27
2022-09-03T02:54:33.355Z,2.60
2022-09-03T02:56:35.449Z,2.60
2022-09-03T02:58:37.777Z,2.53
2022-09-03T03:00:40.092Z,2.50
2022-09-03T03:02:43.308Z,2.50
2022-09-03T03:04:45.511Z,2.60
2022-09-03T03:06:47.947Z,2.83
2022-09-03T03:08:51.105Z,3.00
2022-09-03T03:10:56.835Z,2.50
2022-09-03T03:12:58.974Z,2.63
2022-09-03T03:15:01.236Z,2.30
2022-09-03T03:17:03.641Z,2.60
2022-09-03T03:19:05.842Z,2.60
2022-09-03T03:21:10.515Z,2.77
2022-09-03T03:23:12.688Z,2.30
2022-09-03T03:25:14.892Z,2.80
2022-09-03T03:27:18.999Z,2.73
2022-09-03T03:29:21.734Z,2.83
2022-09-03T03:31:24.405Z,3.00
2022-09-03T03:33:26.553Z,2.47
2022-09-03T03:35:28.664Z,2.63
2022-09-03T03:37:31.541Z,3.10
2022-09-03T03:39:33.717Z,2.80
2022-09-03T03:41:37.443Z,2.70
2022-09-03T03:43:39.649Z,2.60
2022-09-03T03:45:41.904Z,2.87
2022-09-03T03:47:44.072Z,2.77
2022-09-03T03:49:46.244Z,2.73
2022-09-03T03:51:48.369Z,2.50
2022-09-03T03:53:54.788Z,2.60
2022-09-03T03:56:01.651Z,2.83
2022-09-03T03:58:03.785Z,2.63
2022-09-03T04:00:06.409Z,2.80
2022-09-03T04:02:17.699Z,3.13
2022-09-03T04:04:19.933Z,2.67
2022-09-03T04:06:22.091Z,2.60
2022-09-03T04:08:24.293Z,3.20
2022-09-03T04:10:26.458Z,2.93
2022-09-03T04:12:28.616Z,3.00
2022-09-03T04:14:31.312Z,2.83
2022-09-03T04:16:33.487Z,2.50
2022-09-03T04:18:36.463Z,3.60
2022-09-03T04:20:38.967Z,2.70
2022-09-03T04:22:41.172Z,2.93
2022-09-03T04:24:43.293Z,3.23
2022-09-03T04:26:45.428Z,2.70
2022-09-03T04:28:47.853Z,3.03
2022-09-03T04:30:50.029Z,2.90
2022-09-03T04:32:55.969Z,2.80
2022-09-03T04:34:58.109Z,3.20
2022-09-03T04:37:00.244Z,2.90
2022-09-03T04:39:02.422Z,2.77
2022-09-03T04:41:05.732Z,3.00
2022-09-03T04:43:07.872Z,3.00
2022-09-03T04:45:11.082Z,3.60
2022-09-03T04:47:13.230Z,2.93
2022-09-03T04:49:15.413Z,3.03
2022-09-03T04:51:23.245Z,2.90
2022-09-03T04:53:25.337Z,3.23
2022-09-03T04:55:27.428Z,2.80
2022-09-03T04:57:34.465Z,3.03
2022-09-03T04:59:36.934Z,3.20
2022-09-03T05:01:39.881Z,2.90
2022-09-03T05:03:42.069Z,3.30
2022-09-03T05:05:52.613Z,3.10
2022-09-03T05:07:58.599Z,3.40
2022-09-03T05:10:00.733Z,3.00
2022-09-03T05:12:03.026Z,3.40
2022-09-03T05:14:06.102Z,2.67
2022-09-03T05:16:10.466Z,2.97
2022-09-03T05:18:12.588Z,3.33
2022-09-03T05:20:15.005Z,3.37
2022-09-03T05:22:21.319Z,3.00
2022-09-03T05:24:24.562Z,3.10
2022-09-03T05:26:28.725Z,2.93
2022-09-03T05:28:31.346Z,3.07
2022-09-03T05:30:33.469Z,3.40
2022-09-03T05:32:35.616Z,3.47
2022-09-03T05:34:37.736Z,3.13
2022-09-03T05:36:40.298Z,4.37
2022-09-03T05:38:43.100Z,3.87
2022-09-03T05:40:45.237Z,3.00
2022-09-03T05:42:47.359Z,3.30
2022-09-03T05:44:49.543Z,2.73
2022-09-03T05:46:52.097Z,3.33
2022-09-03T05:48:54.281Z,3.30
2022-09-03T05:51:16.391Z,3.50
2022-09-03T05:53:18.532Z,3.07
2022-09-03T05:55:20.636Z,2.40
2022-09-03T05:57:22.748Z,3.20
2022-09-03T05:59:25.053Z,3.00
2022-09-03T06:01:27.336Z,2.60
2022-09-03T06:03:29.693Z,2.77
2022-09-03T06:05:32.341Z,2.67
2022-09-03T06:07:34.450Z,3.00
2022-09-03T06:09:36.697Z,2.80
2022-09-03T06:11:40.304Z,2.50
2022-09-03T06:13:42.474Z,2.63
2022-09-03T06:15:44.623Z,2.47
2022-09-03T06:17:46.746Z,2.30
2022-09-03T06:19:48.850Z,2.50
2022-09-03T06:21:51.221Z,2.43
2022-09-03T06:23:59.587Z,3.23
2022-09-03T06:26:05.763Z,2.30
2022-09-03T06:28:09.011Z,2.43
2022-09-03T06:30:11.938Z,1.93
2022-09-03T06:32:14.439Z,2.13
2022-09-03T06:34:18.589Z,2.17
2022-09-03T06:36:21.335Z,2.20
2022-09-03T06:38:24.677Z,2.50
2022-09-03T06:40:26.831Z,2.10
2022-09-03T06:42:29.002Z,2.27
2022-09-03T06:44:31.099Z,2.40
2022-09-03T06:46:38.940Z,2.40
2022-09-03T06:48:41.966Z,2.27
2022-09-03T06:51:03.793Z,2.20
2022-09-03T06:53:06.656Z,2.40
2022-09-03T06:55:09.536Z,2.30
2022-09-03T06:57:11.645Z,2.20
2022-09-03T06:59:15.031Z,2.17
2022-09-03T07:01:22.738Z,2.40
2022-09-03T07:03:24.955Z,1.83
2022-09-03T07:05:28.718Z,2.10
2022-09-03T07:07:31.278Z,2.00
2022-09-03T07:09:38.424Z,2.03
2022-09-03T07:11:47.468Z,2.20
2022-09-03T07:13:51.844Z,2.30
2022-09-03T07:16:02.223Z,2.53
2022-09-03T07:18:04.462Z,1.83
2022-09-03T07:20:06.948Z,2.37
2022-09-03T07:22:10.439Z,2.20
2022-09-03T07:24:12.689Z,2.20
2022-09-03T07:26:17.613Z,2.10
2022-09-03T07:28:19.773Z,2.60
2022-09-03T07:30:21.996Z,2.07
2022-09-03T07:32:24.114Z,2.20
2022-09-03T07:34:27.108Z,2.40
2022-09-03T07:36:35.362Z,2.47
2022-09-03T07:38:38.033Z,2.07
2022-09-03T07:40:40.209Z,2.30
2022-09-03T07:42:42.323Z,2.10
2022-09-03T07:44:44.450Z,2.20
2022-09-03T07:46:48.034Z,2.33
2022-09-03T07:48:54.719Z,2.10
2022-09-03T07:51:01.376Z,1.70
2022-09-03T07:53:03.598Z,2.00
2022-09-03T07:55:06.307Z,2.13
2022-09-03T07:57:08.719Z,2.43
2022-09-03T07:59:12.035Z,1.80
2022-09-03T08:01:16.754Z,2.37
2022-09-03T08:03:19.072Z,2.50
2022-09-03T08:05:21.712Z,1.80
2022-09-03T08:07:23.877Z,2.03
2022-09-03T08:09:25.967Z,2.27
2022-09-03T08:11:29.223Z,2.13
2022-09-03T08:13:31.325Z,1.90
2022-09-03T08:15:34.496Z,2.20
2022-09-03T08:17:36.612Z,1.83
2022-09-03T08:19:40.292Z,1.67
2022-09-03T08:21:42.555Z,2.00
2022-09-03T08:23:46.844Z,2.30
2022-09-03T08:25:49.064Z,2.20
2022-09-03T08:27:51.486Z,2.13
2022-09-03T08:29:53.719Z,2.07
2022-09-03T08:31:56.609Z,2.10
2022-09-03T08:34:03.872Z,2.47
2022-09-03T08:36:08.347Z,2.27
2022-09-03T08:38:10.918Z,1.97
2022-09-03T08:40:13.297Z,2.10
2022-09-03T08:42:33.622Z,1.87
2022-09-03T08:44:48.855Z,1.90
2022-09-03T08:47:14.259Z,2.27
2022-09-03T08:49:22.762Z,2.30
2022-09-03T08:51:27.968Z,1.90
2022-09-03T08:53:48.515Z,2.10
2022-09-03T08:56:01.013Z,2.33
2022-09-03T08:58:10.831Z,1.87
2022-09-03T09:00:14.146Z,1.97
2022-09-03T09:02:22.870Z,1.90
2022-09-03T09:04:48.098Z,2.00
2022-09-03T09:07:00.946Z,2.00
2022-09-03T09:09:25.003Z,2.60
2022-09-03T09:11:51.084Z,2.00
2022-09-03T09:13:56.873Z,1.70
2022-09-03T09:16:03.970Z,1.70
2022-09-03T09:18:23.754Z,2.20
2022-09-03T09:20:26.419Z,1.97
2022-09-03T09:22:47.149Z,1.90
2022-09-03T09:24:52.653Z,2.10
2022-09-03T09:27:03.784Z,1.73
2022-09-03T09:29:10.554Z,2.07
2022-09-03T09:31:16.187Z,2.00
2022-09-03T09:33:20.272Z,1.80
2022-09-03T09:35:23.309Z,2.03
2022-09-03T09:37:25.712Z,1.77
2022-09-03T09:39:27.971Z,2.20
2022-09-03T09:41:34.302Z,2.63
2022-09-03T09:43:36.607Z,2.37
2022-09-03T09:45:48.271Z,1.60
2022-09-03T09:47:55.915Z,1.80
2022-09-03T09:50:00.171Z,1.90
2022-09-03T09:52:12.101Z,2.07
2022-09-03T09:54:20.210Z,1.70
2022-09-03T09:56:24.607Z,2.90
2022-09-03T09:58:30.815Z,1.87
2022-09-03T10:00:34.957Z,1.70
2022-09-03T10:02:40.041Z,1.77
2022-09-03T10:04:45.806Z,2.10
2022-09-03T10:06:55.606Z,1.87
2022-09-03T10:09:12.952Z,1.63
2022-09-03T10:11:16.671Z,1.90
2022-09-03T10:13:22.063Z,1.93
2022-09-03T10:15:39.485Z,2.20
2022-09-03T10:17:53.379Z,2.10
2022-09-03T10:20:23.301Z,1.97
2022-09-03T10:22:26.462Z,1.80
2022-09-03T10:24:49.112Z,2.10
2022-09-03T10:26:51.278Z,1.83
2022-09-03T10:28:57.616Z,1.97
2022-09-03T10:31:25.040Z,2.23
2022-09-03T10:33:42.783Z,2.03
2022-09-03T10:35:51.714Z,2.10
2022-09-03T10:37:58.369Z,2.17
2022-09-03T10:40:09.703Z,2.13
2022-09-03T10:42:26.062Z,2.10
2022-09-03T10:44:46.410Z,2.20
2022-09-03T10:47:05.658Z,2.33
2022-09-03T10:49:19.479Z,2.07
2022-09-03T10:51:34.085Z,1.87
2022-09-03T10:53:39.455Z,2.40
2022-09-03T10:55:55.955Z,1.60
2022-09-03T10:58:13.614Z,1.83
2022-09-03T11:00:18.285Z,2.00
2022-09-03T11:02:29.727Z,1.90
2022-09-03T11:04:49.375Z,2.10
2022-09-03T11:07:15.395Z,1.90
2022-09-03T11:09:22.525Z,1.70
2022-09-03T11:11:31.117Z,2.20
2022-09-03T11:13:37.700Z,1.73
2022-09-03T11:15:49.675Z,2.10
2022-09-03T11:17:56.995Z,2.60
2022-09-03T11:20:14.740Z,2.47
2022-09-03T11:22:20.889Z,2.20
2022-09-03T11:24:25.196Z,1.73
2022-09-03T11:26:27.886Z,1.90
2022-09-03T11:28:40.495Z,1.67
2022-09-03T11:31:17.832Z,1.70
2022-09-03T11:33:22.229Z,1.90
2022-09-03T11:35:37.547Z,2.00
2022-09-03T11:37:50.270Z,2.03
2022-09-03T11:40:07.866Z,1.90
2022-09-03T11:42:12.681Z,1.70
2022-09-03T11:44:19.109Z,1.90
2022-09-03T11:46:21.782Z,1.67
2022-09-03T11:48:49.333Z,1.70
2022-09-03T11:50:55.470Z,2.10
2022-09-03T11:53:11.505Z,1.77
2022-09-03T11:55:43.478Z,1.97
2022-09-03T11:57:45.947Z,1.77
2022-09-03T11:59:48.137Z,1.80
2022-09-03T12:01:54.546Z,1.80
2022-09-03T12:04:03.445Z,1.63
2022-09-03T12:06:31.549Z,2.00
2022-09-03T12:09:02.245Z,1.83
2022-09-03T12:11:22.962Z,1.60
2022-09-03T12:13:50.961Z,2.03
2022-09-03T12:16:48.684Z,1.97
2022-09-03T12:18:53.168Z,1.80
2022-09-03T12:20:55.874Z,2.30
2022-09-03T12:22:58.092Z,2.30
2022-09-03T12:25:14.892Z,2.13
2022-09-03T12:27:24.688Z,2.00
2022-09-03T12:29:28.591Z,2.03
2022-09-03T12:31:44.203Z,1.77
2022-09-03T12:33:47.775Z,1.87
2022-09-03T12:36:00.193Z,2.10
2022-09-03T12:38:06.073Z,1.83
2022-09-03T12:40:24.421Z,2.20
2022-09-03T12:42:28.483Z,2.13
2022-09-03T12:44:33.547Z,1.97
2022-09-03T12:46:35.857Z,2.20
2022-09-03T12:48:40.305Z,1.87
2022-09-03T12:50:49.513Z,2.23
2022-09-03T12:53:02.855Z,2.00
2022-09-03T12:55:27.710Z,2.10
2022-09-03T12:57:45.878Z,2.07
2022-09-03T12:59:48.927Z,2.17
2022-09-03T13:01:56.847Z,2.20
2022-09-03T13:04:04.763Z,2.00
2022-09-03T13:06:09.971Z,1.87
2022-09-03T13:08:18.625Z,1.80
2022-09-03T13:10:27.545Z,2.27
2022-09-03T13:12:33.581Z,2.20
2022-09-03T13:14:47.218Z,1.97
2022-09-03T13:16:56.366Z,1.70
2022-09-03T13:19:36.695Z,1.83
2022-09-03T13:22:02.837Z,2.00
2022-09-03T13:24:16.583Z,3.23
2022-09-03T13:26:25.539Z,2.30
2022-09-03T13:28:52.201Z,2.47
2022-09-03T13:31:09.330Z,2.00
2022-09-03T13:33:29.198Z,2.50
2022-09-03T13:35:44.494Z,2.57
2022-09-03T13:37:49.826Z,3.27
2022-09-03T13:40:00.012Z,2.70
2022-09-03T13:42:18.261Z,2.23
2022-09-03T13:44:32.475Z,2.20
2022-09-03T13:46:53.378Z,2.60
2022-09-03T13:49:46.139Z,2.60
2022-09-03T13:51:57.353Z,2.60
2022-09-03T13:54:09.346Z,2.60
2022-09-03T13:56:21.744Z,2.27
2022-09-03T13:58:29.276Z,2.27
2022-09-03T14:00:51.475Z,2.43
2022-09-03T14:02:58.639Z,2.33
2022-09-03T14:05:19.345Z,2.40
2022-09-03T14:07:27.252Z,2.07
2022-09-03T14:09:54.396Z,2.23
2022-09-03T14:12:02.717Z,2.30
2022-09-03T14:14:25.505Z,2.93
2022-09-03T14:16:58.140Z,2.00
2022-09-03T14:19:37.279Z,2.40
2022-09-03T14:21:48.187Z,2.00
2022-09-03T14:24:02.748Z,2.53
2022-09-03T14:26:07.180Z,1.93
2022-09-03T14:28:25.815Z,2.10
2022-09-03T14:30:40.996Z,2.00
2022-09-03T14:33:01.546Z,2.13
2022-09-03T14:35:23.066Z,2.20
2022-09-03T14:38:02.715Z,2.03
2022-09-03T14:40:34.391Z,2.30
2022-09-03T14:43:08.195Z,2.30
2022-09-03T14:45:51.925Z,2.30
2022-09-03T14:48:16.242Z,2.43
2022-09-03T14:50:30.239Z,1.97
2022-09-03T14:52:51.892Z,2.17
2022-09-03T14:55:26.286Z,2.27
2022-09-03T14:57:53.502Z,2.03
2022-09-03T15:00:02.135Z,2.50
2022-09-03T15:02:22.814Z,2.20
2022-09-03T15:04:47.961Z,2.20
2022-09-03T15:07:14.889Z,1.97
2022-09-03T15:09:25.017Z,2.23
2022-09-03T15:11:31.687Z,2.20
2022-09-03T15:13:37.064Z,2.00
2022-09-03T15:15:42.030Z,2.10
2022-09-03T15:18:20.679Z,2.00
2022-09-03T15:20:28.754Z,2.13
2022-09-03T15:22:52.554Z,2.30
2022-09-03T15:25:21.513Z,2.20
2022-09-03T15:27:47.948Z,2.40
2022-09-03T15:29:53.828Z,2.27
2022-09-03T15:32:33.334Z,2.13
2022-09-03T15:35:01.546Z,2.20
2022-09-03T15:37:13.676Z,2.80
2022-09-03T15:39:23.775Z,2.17
2022-09-03T15:42:07.310Z,2.10
2022-09-03T15:44:18.389Z,1.70
2022-09-03T15:46:37.791Z,2.20
2022-09-03T15:49:00.727Z,2.40
2022-09-03T15:51:25.556Z,2.47
2022-09-03T15:53:34.193Z,2.33
2022-09-03T15:55:39.406Z,2.20
2022-09-03T15:58:09.693Z,2.47
2022-09-03T16:00:13.939Z,2.17
2022-09-03T16:02:21.670Z,2.30
2022-09-03T16:04:48.974Z,2.33
2022-09-03T16:07:01.973Z,2.33
2022-09-03T16:09:10.700Z,2.43
2022-09-03T16:11:34.310Z,2.27
2022-09-03T16:13:40.849Z,2.83
2022-09-03T16:15:58.998Z,2.40
2022-09-03T16:18:22.305Z,2.20
2022-09-03T16:20:35.291Z,2.20
2022-09-03T16:22:45.168Z,2.43
2022-09-03T16:24:50.032Z,2.17
2022-09-03T16:27:09.431Z,2.60
2022-09-03T16:29:15.802Z,2.10
2022-09-03T16:31:36.096Z,2.50
2022-09-03T16:34:04.171Z,2.70
2022-09-03T16:36:26.370Z,2.47
2022-09-03T16:38:48.913Z,2.23
2022-09-03T16:41:10.173Z,2.17
2022-09-03T16:43:40.590Z,2.77
2022-09-03T16:46:20.242Z,2.30
2022-09-03T16:48:47.019Z,2.40
2022-09-03T16:51:27.494Z,2.80
2022-09-03T16:54:08.541Z,2.87
2022-09-03T16:56:34.391Z,2.83
2022-09-03T16:58:52.939Z,3.10
2022-09-03T17:01:10.308Z,2.73
2022-09-03T17:03:29.477Z,3.00
2022-09-03T17:06:00.764Z,2.10
2022-09-03T17:08:30.665Z,2.40
2022-09-03T17:10:49.227Z,2.80
2022-09-03T17:13:36.196Z,2.63
2022-09-03T17:15:46.467Z,2.53
2022-09-03T17:18:03.733Z,2.70
2022-09-03T17:20:21.852Z,2.83
2022-09-03T17:22:44.643Z,2.70
2022-09-03T17:25:03.907Z,2.30
2022-09-03T17:27:33.867Z,2.90
2022-09-03T17:29:44.942Z,2.63
2022-09-03T17:31:55.204Z,3.23
2022-09-03T17:34:14.023Z,3.00
2022-09-03T17:36:18.754Z,3.13
2022-09-03T17:38:49.076Z,3.00
2022-09-03T17:41:22.897Z,3.10
2022-09-03T17:43:35.440Z,2.97
2022-09-03T17:45:49.619Z,3.00
2022-09-03T17:48:03.701Z,3.07
2022-09-03T17:50:15.917Z,2.50
2022-09-03T17:52:55.731Z,2.70
2022-09-03T17:55:00.343Z,2.77
2022-09-03T17:57:25.108Z,2.73
2022-09-03T17:59:53.475Z,2.90
2022-09-03T18:02:04.061Z,2.63
2022-09-03T18:04:38.546Z,2.70
2022-09-03T18:06:58.344Z,2.87
2022-09-03T18:09:22.448Z,2.73
2022-09-03T18:11:35.841Z,2.93
2022-09-03T18:14:03.006Z,2.60
2022-09-03T18:16:27.848Z,2.57
2022-09-03T18:18:32.234Z,2.40
2022-09-03T18:21:23.996Z,3.40
2022-09-03T18:23:52.802Z,3.00
2022-09-03T18:26:16.376Z,2.50
2022-09-03T18:28:38.540Z,3.57
2022-09-03T18:30:59.145Z,3.50
2022-09-03T18:33:19.502Z,3.10
2022-09-03T18:35:40.267Z,3.23
2022-09-03T18:38:01.016Z,3.90
2022-09-03T18:40:22.159Z,6.00
2022-09-03T18:43:29.180Z,3.37
2022-09-03T18:48:55.320Z,3.60
2022-09-03T18:51:17.974Z,3.10
2022-09-03T18:53:44.611Z,3.40
2022-09-03T18:56:27.288Z,3.07
2022-09-03T18:59:06.019Z,3.20
2022-09-03T19:01:42.003Z,3.60
2022-09-03T19:04:15.313Z,4.13
2022-09-03T19:06:45.507Z,3.50
2022-09-03T19:09:35.934Z,3.43
2022-09-03T19:12:43.846Z,3.20
2022-09-03T19:15:43.343Z,3.40
2022-09-03T19:18:26.797Z,3.30
2022-09-03T19:20:49.182Z,3.60
2022-09-03T19:23:09.502Z,3.30
2022-09-03T19:25:32.755Z,3.60
2022-09-03T19:28:10.531Z,8.70
2022-09-03T19:30:42.192Z,7.00
2022-09-03T19:33:14.929Z,6.00
2022-09-03T19:35:53.681Z,5.00
2022-09-03T19:38:17.308Z,3.20
2022-09-03T19:40:37.502Z,3.53
2022-09-03T19:43:24.151Z,3.23
2022-09-03T19:45:57.269Z,3.40
2022-09-03T19:48:34.387Z,3.23
2022-09-03T19:51:00.199Z,5.40
2022-09-03T19:53:24.596Z,3.37
2022-09-03T19:55:46.535Z,3.93
2022-09-03T19:58:32.276Z,3.33
2022-09-03T20:00:52.734Z,3.17
2022-09-03T20:03:16.970Z,3.47
2022-09-03T20:05:39.733Z,4.30
2022-09-03T20:08:00.237Z,3.53
2022-09-03T20:10:22.968Z,3.10
2022-09-03T20:12:28.114Z,2.80
2022-09-03T20:14:31.196Z,3.37
2022-09-03T20:16:44.982Z,3.50
2022-09-03T20:19:12.233Z,3.50
2022-09-03T20:21:50.456Z,3.80
2022-09-03T20:24:17.699Z,3.40
2022-09-03T20:26:43.883Z,3.60
2022-09-03T20:29:04.391Z,3.53
2022-09-03T20:31:20.494Z,2.90
2022-09-03T20:33:33.734Z,3.60
2022-09-03T20:36:07.694Z,3.43
2022-09-03T20:38:28.793Z,3.37
2022-09-03T20:40:56.674Z,3.57
2022-09-03T20:43:18.479Z,3.20
2022-09-03T20:45:53.924Z,3.40
2022-09-03T20:48:28.351Z,4.13
2022-09-03T20:50:46.950Z,3.60
2022-09-03T20:53:02.058Z,3.70
2022-09-03T20:55:19.411Z,3.90
2022-09-03T20:57:29.541Z,3.87
2022-09-03T20:59:34.552Z,4.17
2022-09-03T21:01:36.551Z,3.37
2022-09-03T21:04:02.373Z,3.83
2022-09-03T21:06:17.302Z,4.23
2022-09-03T21:08:34.249Z,3.70
2022-09-03T21:10:54.787Z,3.53
2022-09-03T21:13:16.070Z,3.90
2022-09-03T21:15:32.274Z,3.47
2022-09-03T21:17:38.214Z,3.77
2022-09-03T21:20:10.476Z,3.07
2022-09-03T21:22:29.038Z,3.53
2022-09-03T21:24:39.054Z,3.80
2022-09-03T21:26:46.175Z,4.13
2022-09-03T21:29:21.338Z,3.60
2022-09-03T21:31:38.898Z,3.30
2022-09-03T21:33:48.738Z,3.70
2022-09-03T21:36:12.113Z,3.97
2022-09-03T21:38:22.140Z,3.60
2022-09-03T21:40:29.191Z,3.67
2022-09-03T21:42:36.570Z,3.80
2022-09-03T21:44:56.604Z,4.77
2022-09-03T21:47:02.642Z,3.70
2022-09-03T21:49:11.087Z,4.37
2022-09-03T21:51:24.933Z,3.90
2022-09-03T21:53:35.934Z,3.83
2022-09-03T21:55:56.149Z,3.67
2022-09-03T21:58:10.506Z,4.20
2022-09-03T22:00:19.058Z,3.60
2022-09-03T22:02:26.547Z,3.50
2022-09-03T22:04:28.976Z,3.90
2022-09-03T22:07:00.080Z,4.10
2022-09-03T22:09:09.707Z,3.53
2022-09-03T22:11:29.952Z,4.20
2022-09-03T22:13:44.222Z,4.57
2022-09-03T22:15:50.227Z,4.13
2022-09-03T22:17:58.783Z,4.00
2022-09-03T22:20:00.853Z,3.67
2022-09-03T22:22:03.767Z,3.67
2022-09-03T22:24:19.088Z,3.60
2022-09-03T22:26:32.310Z,3.90
2022-09-03T22:28:42.350Z,3.97
2022-09-03T22:31:23.020Z,4.13
2022-09-03T22:33:44.166Z,4.90
2022-09-03T22:36:27.352Z,4.40
2022-09-03T22:38:50.032Z,4.13
2022-09-03T22:41:10.681Z,4.30
2022-09-03T22:43:31.436Z,4.63
2022-09-03T22:45:56.570Z,4.00
2022-09-03T22:48:20.107Z,3.50
2022-09-03T22:50:51.572Z,4.30
2022-09-03T22:53:34.822Z,3.70
2022-09-03T22:55:41.662Z,3.90
2022-09-03T22:58:10.561Z,4.03
2022-09-03T23:00:13.203Z,3.90
2022-09-03T23:02:24.259Z,4.23
2022-09-03T23:04:37.271Z,3.63
2022-09-03T23:06:51.031Z,4.50
2022-09-03T23:09:08.229Z,4.60
2022-09-03T23:11:25.573Z,4.80
2022-09-03T23:13:43.267Z,4.00
2022-09-03T23:16:00.486Z,4.53
2022-09-03T23:18:19.897Z,4.20
2022-09-03T23:20:25.464Z,4.47
2022-09-03T23:22:38.789Z,4.70
2022-09-03T23:24:49.793Z,4.37
2022-09-03T23:26:53.635Z,4.70
2022-09-03T23:29:16.274Z,4.10
2022-09-03T23:31:23.860Z,4.20
2022-09-03T23:33:29.839Z,4.23
2022-09-03T23:35:41.174Z,4.17
2022-09-03T23:38:02.292Z,3.73
2022-09-03T23:40:22.266Z,4.70
2022-09-03T23:42:26.596Z,4.70
2022-09-03T23:44:53.482Z,4.63
2022-09-03T23:47:37.253Z,4.23
2022-09-03T23:49:48.163Z,4.37
2022-09-03T23:52:21.396Z,4.10
2022-09-03T23:54:39.671Z,4.67
2022-09-03T23:57:02.350Z,4.30
2022-09-03T23:59:07.566Z,4.80
